createdAt,value
2022-08-28T00:01:24.185Z,72.85
2022-08-28T00:04:30.146Z,72.81
2022-08-28T00:07:35.508Z,72.55
2022-08-28T00:10:42.158Z,73.16
2022-08-28T00:13:50.088Z,73.01
2022-08-28T00:16:56.817Z,72.92
2022-08-28T00:20:02.148Z,72.79
2022-08-28T00:23:08.808Z,73.01
2022-08-28T00:26:34.637Z,72.79
2022-08-28T00:29:40.460Z,72.83
2022-08-28T00:32:45.808Z,73.20
2022-08-28T00:35:52.383Z,73.53
2022-08-28T00:38:59.181Z,73.07
2022-08-28T00:42:05.509Z,72.99
2022-08-28T00:45:13.883Z,72.71
2022-08-28T00:48:19.854Z,72.89
2022-08-28T00:51:37.532Z,73.17
2022-08-28T00:54:55.365Z,73.82
2022-08-28T00:58:05.803Z,74.22
2022-08-28T01:01:14.487Z,73.70
2022-08-28T01:04:23.189Z,73.64
2022-08-28T01:07:29.213Z,73.79
2022-08-28T01:10:36.240Z,73.51
2022-08-28T01:13:46.949Z,73.31
2022-08-28T01:16:56.308Z,73.63
2022-08-28T01:20:09.445Z,73.27
2022-08-28T01:23:23.825Z,74.12
2022-08-28T01:26:32.702Z,74.20
2022-08-28T01:29:38.031Z,74.66
2022-08-28T01:32:47.406Z,75.28
2022-08-28T01:35:52.737Z,74.63
2022-08-28T01:39:04.009Z,74.06
2022-08-28T01:42:11.932Z,73.85
2022-08-28T01:45:20.776Z,73.61
2022-08-28T01:48:29.095Z,73.84
2022-08-28T01:51:37.979Z,73.78
2022-08-28T01:54:43.601Z,73.63
2022-08-28T01:57:54.603Z,74.64
2022-08-28T02:01:00.353Z,74.44
2022-08-28T02:04:07.307Z,74.50
2022-08-28T02:07:12.751Z,74.81
2022-08-28T02:10:18.484Z,75.51
2022-08-28T02:13:26.617Z,74.80
2022-08-28T02:16:32.534Z,74.20
2022-08-28T02:19:38.913Z,74.20
2022-08-28T02:22:45.244Z,74.61
2022-08-28T02:25:50.910Z,74.39
2022-08-28T02:28:59.191Z,74.19
2022-08-28T02:32:06.173Z,73.42
2022-08-28T02:35:13.620Z,73.00
2022-08-28T02:38:18.982Z,72.43
2022-08-28T02:41:24.671Z,72.11
2022-08-28T02:44:32.657Z,72.04
2022-08-28T02:47:38.336Z,72.20
2022-08-28T02:50:44.009Z,72.28
2022-08-28T02:53:50.567Z,71.98
2022-08-28T02:56:56.396Z,71.93
2022-08-28T03:00:04.916Z,72.14
2022-08-28T03:03:10.180Z,72.13
2022-08-28T03:06:16.832Z,72.51
2022-08-28T03:09:22.165Z,72.32
2022-08-28T03:12:27.864Z,72.05
2022-08-28T03:15:35.800Z,72.36
2022-08-28T03:18:41.973Z,72.04
2022-08-28T03:21:47.737Z,72.38
2022-08-28T03:24:53.430Z,72.15
2022-08-28T03:27:58.821Z,72.08
2022-08-28T03:31:07.170Z,72.41
2022-08-28T03:34:12.657Z,72.85
2022-08-28T03:37:18.320Z,72.68
2022-08-28T03:40:24.180Z,72.41
2022-08-28T03:43:30.397Z,72.04
2022-08-28T03:46:39.141Z,72.47
2022-08-28T03:49:45.512Z,72.24
2022-08-28T03:52:50.824Z,72.44
2022-08-28T03:55:56.758Z,72.46
2022-08-28T03:59:05.368Z,72.62
2022-08-28T04:02:13.716Z,72.84
2022-08-28T04:05:19.078Z,72.51
2022-08-28T04:08:25.054Z,72.29
2022-08-28T04:11:30.477Z,72.67
2022-08-28T04:14:36.136Z,72.53
2022-08-28T04:17:44.189Z,73.03
2022-08-28T04:20:49.800Z,72.73
2022-08-28T04:23:55.217Z,73.82
2022-08-28T04:27:00.845Z,73.50
2022-08-28T04:30:06.852Z,73.09
2022-08-28T04:33:18.880Z,72.97
2022-08-28T04:36:24.177Z,73.54
2022-08-28T04:39:29.843Z,73.14
2022-08-28T04:42:35.198Z,73.42
2022-08-28T04:45:43.552Z,74.41
2022-08-28T04:48:51.860Z,73.34
2022-08-28T04:51:57.829Z,73.25
2022-08-28T04:55:03.345Z,73.00
2022-08-28T04:58:09.084Z,72.80
2022-08-28T05:01:21.590Z,72.78
2022-08-28T05:04:29.871Z,72.49
2022-08-28T05:07:35.198Z,73.04
2022-08-28T05:10:40.926Z,72.91
2022-08-28T05:13:46.746Z,73.24
2022-08-28T05:16:57.773Z,73.20
2022-08-28T05:20:06.834Z,73.39
2022-08-28T05:23:13.200Z,72.87
2022-08-28T05:26:21.216Z,72.29
2022-08-28T05:29:26.839Z,72.85
2022-08-28T05:32:32.200Z,73.01
2022-08-28T05:35:42.204Z,72.96
2022-08-28T05:38:47.540Z,73.29
2022-08-28T05:41:53.178Z,73.79
2022-08-28T05:44:59.663Z,73.53
2022-08-28T05:48:05.899Z,73.26
2022-08-28T05:51:17.031Z,72.80
2022-08-28T05:54:23.101Z,72.53
2022-08-28T05:57:28.389Z,72.53
2022-08-28T06:00:34.025Z,73.15
2022-08-28T06:03:40.134Z,73.30
2022-08-28T06:06:49.605Z,72.89
2022-08-28T06:09:54.977Z,72.34
2022-08-28T06:13:01.193Z,72.70
2022-08-28T06:16:07.344Z,72.79
2022-08-28T06:19:15.049Z,72.16
2022-08-28T06:22:22.976Z,72.08
2022-08-28T06:25:28.677Z,71.84
2022-08-28T06:28:34.078Z,72.81
2022-08-28T06:31:39.815Z,72.75
2022-08-28T06:34:45.139Z,72.84
2022-08-28T06:37:53.433Z,72.84
2022-08-28T06:41:00.153Z,73.05
2022-08-28T06:44:06.359Z,73.86
2022-08-28T06:47:11.797Z,72.97
2022-08-28T06:50:17.386Z,73.19
2022-08-28T06:53:27.549Z,73.62
2022-08-28T06:56:33.296Z,73.71
2022-08-28T06:59:38.624Z,74.09
2022-08-28T07:02:44.371Z,72.98
2022-08-28T07:05:49.713Z,72.62
2022-08-28T07:08:57.989Z,71.88
2022-08-28T07:12:03.580Z,71.77
2022-08-28T07:15:10.593Z,71.23
2022-08-28T07:18:16.155Z,70.95
2022-08-28T07:21:21.909Z,70.64
2022-08-28T07:24:30.593Z,70.78
2022-08-28T07:27:36.540Z,70.96
2022-08-28T07:30:41.944Z,70.00
2022-08-28T07:33:50.093Z,69.52
2022-08-28T07:37:04.314Z,70.00
2022-08-28T07:40:14.398Z,69.28
2022-08-28T07:43:32.178Z,69.16
2022-08-28T07:46:40.778Z,69.94
2022-08-28T07:49:46.589Z,69.19
2022-08-28T07:52:52.253Z,69.58
2022-08-28T07:56:00.346Z,70.35
2022-08-28T07:59:06.282Z,69.47
2022-08-28T08:02:13.196Z,69.53
2022-08-28T08:05:19.120Z,70.15
2022-08-28T08:12:03.349Z,71.27
2022-08-28T08:15:09.889Z,71.88
2022-08-28T08:18:15.203Z,71.50
2022-08-28T08:21:29.995Z,70.41
2022-08-28T08:24:35.904Z,70.19
2022-08-28T08:27:44.145Z,70.38
2022-08-28T08:30:49.551Z,71.61
2022-08-28T08:33:58.698Z,71.50
2022-08-28T08:37:05.908Z,71.08
2022-08-28T08:40:15.948Z,71.80
2022-08-28T08:43:25.517Z,72.01
2022-08-28T08:46:37.060Z,72.26
2022-08-28T08:51:21.163Z,69.84
2022-08-28T08:54:26.857Z,70.04
2022-08-28T08:57:34.829Z,70.72
2022-08-28T09:00:55.969Z,70.04
2022-08-28T09:04:07.454Z,70.01
2022-08-28T09:07:19.731Z,69.39
2022-08-28T09:10:26.095Z,68.52
2022-08-28T09:13:41.960Z,68.36
2022-08-28T09:16:49.464Z,68.64
2022-08-28T09:19:55.097Z,68.67
2022-08-28T09:23:12.333Z,68.72
2022-08-28T09:26:26.159Z,68.84
2022-08-28T09:29:35.568Z,68.16
2022-08-28T09:32:44.674Z,68.05
2022-08-28T09:35:54.973Z,68.53
2022-08-28T09:39:25.370Z,68.85
2022-08-28T09:42:43.138Z,67.79
2022-08-28T09:45:54.753Z,67.52
2022-08-28T09:49:12.123Z,67.58
2022-08-28T09:52:25.384Z,67.61
2022-08-28T09:55:42.150Z,67.65
2022-08-28T09:58:49.976Z,68.03
2022-08-28T10:02:06.611Z,67.43
2022-08-28T10:05:17.801Z,67.79
2022-08-28T10:08:39.641Z,68.00
2022-08-28T10:11:54.998Z,68.05
2022-08-28T10:15:07.103Z,68.02
2022-08-28T10:18:24.758Z,70.39
2022-08-28T10:21:35.129Z,69.39
2022-08-28T10:24:56.838Z,69.60
2022-08-28T10:28:23.693Z,69.60
2022-08-28T10:31:39.148Z,70.36
2022-08-28T10:34:55.341Z,71.30
2022-08-28T10:38:12.125Z,71.99
2022-08-28T10:41:22.831Z,71.49
2022-08-28T10:44:39.403Z,71.27
2022-08-28T10:47:47.909Z,72.31
2022-08-28T10:50:57.994Z,71.88
2022-08-28T10:54:08.859Z,71.79
2022-08-28T10:57:31.604Z,73.05
2022-08-28T11:00:43.381Z,72.94
2022-08-28T11:03:53.509Z,73.73
2022-08-28T11:07:03.456Z,73.97
2022-08-28T11:10:41.722Z,74.60
2022-08-28T11:13:54.768Z,75.21
2022-08-28T11:17:05.525Z,75.33
2022-08-28T11:20:19.351Z,75.75
2022-08-28T11:23:30.242Z,76.31
2022-08-28T11:26:44.556Z,75.58
2022-08-28T11:30:32.939Z,74.90
2022-08-28T11:33:46.851Z,75.17
2022-08-28T11:37:02.278Z,75.25
2022-08-28T11:40:21.195Z,75.12
2022-08-28T11:43:41.089Z,75.65
2022-08-28T11:46:47.863Z,75.65
2022-08-28T11:49:56.484Z,75.85
2022-08-28T11:53:25.081Z,75.82
2022-08-28T11:56:55.398Z,75.65
2022-08-28T12:00:08.893Z,75.68
2022-08-28T12:03:16.994Z,75.74
2022-08-28T12:06:52.258Z,75.40
2022-08-28T12:10:02.897Z,76.20
2022-08-28T12:13:11.125Z,75.69
2022-08-28T12:16:17.199Z,75.37
2022-08-28T12:19:30.137Z,75.77
2022-08-28T12:22:50.404Z,76.39
2022-08-28T12:26:05.028Z,75.73
2022-08-28T12:29:26.864Z,76.49
2022-08-28T12:32:37.510Z,76.76
2022-08-28T12:35:43.995Z,76.49
2022-08-28T12:38:54.952Z,76.24
2022-08-28T12:42:01.046Z,76.66
2022-08-28T12:45:10.373Z,76.11
2022-08-28T12:48:19.811Z,76.11
2022-08-28T12:51:27.275Z,76.20
2022-08-28T12:54:35.729Z,75.91
2022-08-28T12:57:48.140Z,75.67
2022-08-28T13:00:57.871Z,74.65
2022-08-28T13:04:07.139Z,74.32
2022-08-28T13:07:18.760Z,74.94
2022-08-28T13:10:29.858Z,75.06
2022-08-28T13:13:40.219Z,75.07
2022-08-28T13:16:47.551Z,74.38
2022-08-28T13:20:05.325Z,75.12
2022-08-28T13:23:10.798Z,74.17
2022-08-28T13:26:26.781Z,74.19
2022-08-28T13:29:32.764Z,73.99
2022-08-28T13:32:42.843Z,73.82
2022-08-28T13:35:50.643Z,74.52
2022-08-28T13:38:56.351Z,74.03
2022-08-28T13:42:09.742Z,74.03
2022-08-28T13:45:15.951Z,73.77
2022-08-28T13:48:24.670Z,73.60
2022-08-28T13:51:30.537Z,74.55
2022-08-28T13:54:36.230Z,75.18
2022-08-28T13:57:44.545Z,75.08
2022-08-28T14:00:52.346Z,74.89
2022-08-28T14:03:56.413Z,75.40
2022-08-28T14:07:01.873Z,74.98
2022-08-28T14:10:08.636Z,75.60
2022-08-28T14:13:17.535Z,75.26
2022-08-28T14:16:23.217Z,74.67
2022-08-28T14:19:28.878Z,74.39
2022-08-28T14:22:34.553Z,73.96
2022-08-28T14:25:44.299Z,73.92
2022-08-28T14:28:52.883Z,73.39
2022-08-28T14:31:58.847Z,73.20
2022-08-28T14:35:04.996Z,73.46
2022-08-28T14:38:10.581Z,73.69
2022-08-28T14:41:17.593Z,74.56
2022-08-28T14:44:27.317Z,74.24
2022-08-28T14:47:33.165Z,74.21
2022-08-28T14:50:42.195Z,74.34
2022-08-28T14:53:48.490Z,73.70
2022-08-28T14:56:54.836Z,73.14
2022-08-28T15:00:03.105Z,72.55
2022-08-28T15:03:08.484Z,72.67
2022-08-28T15:06:14.312Z,72.62
2022-08-28T15:09:21.945Z,72.55
2022-08-28T15:12:27.653Z,71.98
2022-08-28T15:15:35.661Z,72.38
2022-08-28T15:18:41.739Z,72.42
2022-08-28T15:21:51.349Z,71.83
2022-08-28T15:24:57.350Z,71.69
2022-08-28T15:28:02.692Z,71.26
2022-08-28T15:31:11.051Z,71.40
2022-08-28T15:34:22.095Z,71.25
2022-08-28T15:37:31.549Z,71.36
2022-08-28T15:40:50.097Z,71.41
2022-08-28T15:43:57.299Z,70.99
2022-08-28T15:47:06.321Z,70.66
2022-08-28T15:50:13.143Z,70.70
2022-08-28T15:53:18.639Z,70.02
2022-08-28T15:56:25.440Z,70.43
2022-08-28T15:59:40.041Z,70.17
2022-08-28T16:03:01.109Z,70.03
2022-08-28T16:06:15.412Z,69.38
2022-08-28T16:09:21.117Z,68.87
2022-08-28T16:12:26.538Z,68.38
2022-08-28T16:15:32.348Z,68.33
2022-08-28T16:18:41.252Z,67.84
2022-08-28T16:21:46.987Z,68.45
2022-08-28T16:24:52.856Z,67.90
2022-08-28T16:27:58.521Z,67.97
2022-08-28T16:31:19.862Z,67.77
2022-08-28T16:34:31.689Z,68.47
2022-08-28T16:37:44.077Z,68.63
2022-08-28T16:40:50.250Z,69.09
2022-08-28T16:43:58.415Z,68.70
2022-08-28T16:47:08.624Z,68.25
2022-08-28T16:50:22.123Z,68.17
2022-08-28T16:53:28.922Z,68.14
2022-08-28T16:56:40.879Z,68.34
2022-08-28T16:59:53.065Z,67.94
2022-08-28T17:03:06.139Z,67.49
2022-08-28T17:06:19.295Z,68.04
2022-08-28T17:09:26.088Z,68.36
2022-08-28T17:12:35.655Z,68.49
2022-08-28T17:15:46.614Z,69.21
2022-08-28T17:18:53.006Z,69.87
2022-08-28T17:22:14.985Z,70.45
2022-08-28T17:25:20.611Z,71.01
2022-08-28T17:28:26.114Z,71.05
2022-08-28T17:31:31.879Z,71.46
2022-08-28T17:34:37.411Z,71.29
2022-08-28T17:37:46.838Z,71.25
2022-08-28T17:40:53.430Z,71.67
2022-08-28T17:43:59.159Z,71.23
2022-08-28T17:47:04.573Z,71.01
2022-08-28T17:50:11.744Z,71.77
2022-08-28T17:53:21.139Z,71.87
2022-08-28T17:56:35.687Z,71.52
2022-08-28T17:59:41.605Z,71.33
2022-08-28T18:02:50.959Z,71.85
2022-08-28T18:06:01.102Z,72.39
2022-08-28T18:09:13.162Z,72.23
2022-08-28T18:12:18.584Z,72.40
2022-08-28T18:15:24.467Z,72.10
2022-08-28T18:18:32.288Z,71.83
2022-08-28T18:21:43.647Z,71.56
2022-08-28T18:24:55.735Z,72.05
2022-08-28T18:28:01.451Z,71.76
2022-08-28T18:31:08.484Z,71.85
2022-08-28T18:34:21.949Z,71.77
2022-08-28T18:37:27.773Z,71.96
2022-08-28T18:40:37.121Z,71.45
2022-08-28T18:43:42.619Z,71.90
2022-08-28T18:46:57.113Z,71.56
2022-08-28T18:50:05.100Z,71.25
2022-08-28T18:53:10.957Z,71.77
2022-08-28T18:56:20.514Z,71.34
2022-08-28T18:59:33.442Z,71.62
2022-08-28T19:02:41.623Z,71.41
2022-08-28T19:05:51.290Z,70.80
2022-08-28T19:09:08.307Z,70.38
2022-08-28T19:12:16.895Z,70.42
2022-08-28T19:15:23.180Z,69.74
2022-08-28T19:18:31.699Z,69.75
2022-08-28T19:21:39.214Z,69.57
2022-08-28T19:24:49.990Z,69.56
2022-08-28T19:28:00.010Z,69.06
2022-08-28T19:31:08.127Z,69.56
2022-08-28T19:34:19.557Z,69.19
2022-08-28T19:37:25.466Z,69.32
2022-08-28T19:40:31.724Z,69.06
2022-08-28T19:43:44.491Z,68.85
2022-08-28T19:46:52.249Z,68.66
2022-08-28T19:50:01.482Z,68.34
2022-08-28T19:53:07.968Z,68.22
2022-08-28T19:56:17.172Z,68.19
2022-08-28T19:59:28.457Z,68.13
2022-08-28T20:02:36.608Z,68.07
2022-08-28T20:05:44.368Z,67.69
2022-08-28T20:08:51.779Z,67.99
2022-08-28T20:11:59.436Z,68.43
2022-08-28T20:15:09.136Z,68.46
2022-08-28T20:18:19.188Z,68.87
2022-08-28T20:21:28.860Z,68.89
2022-08-28T20:24:43.485Z,68.84
2022-08-28T20:27:49.215Z,69.41
2022-08-28T20:30:57.353Z,69.41
2022-08-28T20:34:03.141Z,70.04
2022-08-28T20:37:08.596Z,69.91
2022-08-28T20:40:18.334Z,69.66
2022-08-28T20:43:23.967Z,69.40
2022-08-28T20:46:36.011Z,69.51
2022-08-28T20:49:45.305Z,69.46
2022-08-28T20:52:51.020Z,69.22
2022-08-28T20:55:58.237Z,69.17
2022-08-28T20:59:03.940Z,68.76
2022-08-28T21:02:14.201Z,68.47
2022-08-28T21:05:20.065Z,68.65
2022-08-28T21:08:26.052Z,68.42
2022-08-28T21:11:31.870Z,68.42
2022-08-28T21:14:37.279Z,68.27
2022-08-28T21:17:45.530Z,67.63
2022-08-28T21:20:50.872Z,67.49
2022-08-28T21:23:57.107Z,67.71
2022-08-28T21:27:02.525Z,67.46
2022-08-28T21:30:11.178Z,67.81
2022-08-28T21:33:19.156Z,67.91
2022-08-28T21:36:25.109Z,67.29
2022-08-28T21:39:30.441Z,66.92
2022-08-28T21:42:36.073Z,66.96
2022-08-28T21:45:41.823Z,66.65
2022-08-28T21:48:51.324Z,66.73
2022-08-28T21:51:56.639Z,66.66
2022-08-28T21:55:05.004Z,66.66
2022-08-28T21:58:10.812Z,66.57
2022-08-28T22:01:18.903Z,65.91
2022-08-28T22:04:26.851Z,65.99
2022-08-28T22:07:32.563Z,66.28
2022-08-28T22:10:40.446Z,66.28
2022-08-28T22:13:46.652Z,65.85
2022-08-28T22:16:52.030Z,65.93
2022-08-28T22:20:00.328Z,65.88
2022-08-28T22:23:12.111Z,65.59
2022-08-28T22:26:20.140Z,65.86
2022-08-28T22:29:25.679Z,65.79
2022-08-28T22:32:31.371Z,65.93
2022-08-28T22:35:39.365Z,65.34
2022-08-28T22:38:47.047Z,65.52
2022-08-28T22:41:58.561Z,65.88
2022-08-28T22:45:04.296Z,65.50
2022-08-28T22:48:10.548Z,65.50
2022-08-28T22:51:21.231Z,65.54
2022-08-28T22:54:26.580Z,65.11
2022-08-28T22:57:32.185Z,65.08
2022-08-28T23:00:38.515Z,65.23
2022-08-28T23:03:45.159Z,65.61
2022-08-28T23:07:00.434Z,64.88
2022-08-28T23:10:06.965Z,64.93
2022-08-28T23:13:14.223Z,65.58
2022-08-28T23:16:24.219Z,65.14
2022-08-28T23:19:30.339Z,65.55
2022-08-28T23:22:38.976Z,65.55
2022-08-28T23:25:44.395Z,65.54
2022-08-28T23:28:50.394Z,65.46
2022-08-28T23:31:55.769Z,65.65
2022-08-28T23:35:01.448Z,65.48
2022-08-28T23:38:09.852Z,65.34
2022-08-28T23:41:15.605Z,65.48
2022-08-28T23:44:20.945Z,65.48
2022-08-28T23:47:26.647Z,65.86
2022-08-28T23:50:31.982Z,65.78
2022-08-28T23:53:40.268Z,65.78
2022-08-28T23:56:45.701Z,66.12
2022-08-28T23:59:51.333Z,66.30
